Time;durP1;ratioP1;P1;durP2;ratioP2;P2;SDS_P1;SDS_P2;PMS_P1;PMS_P2;Temp;Humidity;BMP_temperature;BMP_pressure;BME280_temperature;BME280_humidity;BME280_pressure;Samples;Min_cycle;Max_cycle;Signal;HPM_P1;HPM_P2
2022/11/21 00:00:17;;;;;;;1.50;1.40;;;;;;;5.17;100.00;100440.06;5035107;28;20099;-88
2022/11/21 00:03:00;;;;;;;1.52;1.20;;;;;;;5.14;100.00;100433.19;5035377;28;20029;-89
2022/11/21 00:05:29;;;;;;;1.90;1.30;;;;;;;5.17;100.00;100447.78;5035043;28;20026;-90
2022/11/21 00:07:55;;;;;;;1.95;1.30;;;;;;;5.16;100.00;100461.50;5015999;28;20075;-91
2022/11/21 00:10:25;;;;;;;1.73;1.30;;;;;;;5.16;100.00;100462.34;5015400;28;20041;-91
2022/11/21 00:13:07;;;;;;;2.50;1.65;;;;;;;5.18;100.00;100488.94;5014751;28;20021;-91
2022/11/21 00:15:41;;;;;;;6.13;2.70;;;;;;;5.15;100.00;100485.53;5015522;28;20026;-91
2022/11/21 00:18:11;;;;;;;8.98;3.10;;;;;;;5.18;100.00;100452.94;5015585;28;20102;-89
2022/11/21 00:20:37;;;;;;;4.68;2.70;;;;;;;5.20;100.00;100466.66;5015235;28;20022;-89
2022/11/21 00:23:03;;;;;;;3.78;2.20;;;;;;;5.19;100.00;100472.66;5015232;28;20034;-89
2022/11/21 00:25:39;;;;;;;3.40;1.95;;;;;;;5.20;100.00;100489.81;5015229;28;20068;-90
2022/11/21 00:28:05;;;;;;;2.38;1.80;;;;;;;5.19;100.00;100471.78;5015303;28;20026;-90
2022/11/21 00:30:30;;;;;;;2.10;1.67;;;;;;;5.21;100.00;100473.53;5014936;28;20446;-89
2022/11/21 00:33:10;;;;;;;2.15;1.63;;;;;;;5.22;100.00;100475.25;5014916;28;20026;-90
2022/11/21 00:35:35;;;;;;;2.30;1.88;;;;;;;5.22;100.00;100482.97;5033212;28;20037;-90
2022/11/21 00:38:16;;;;;;;1.50;1.40;;;;;;;5.21;100.00;100476.09;5034763;28;20075;-90
2022/11/21 00:40:44;;;;;;;1.98;1.60;;;;;;;5.18;100.00;100473.50;5034664;28;20049;-91
2022/11/21 00:43:40;;;;;;;5.55;2.10;;;;;;;5.17;100.00;100482.09;5034510;28;20026;-92
2022/11/21 00:46:05;;;;;;;5.75;2.40;;;;;;;5.16;100.00;100464.94;5034839;28;20026;-91
2022/11/21 00:48:36;;;;;;;7.25;3.05;;;;;;;5.15;100.00;100436.63;5034692;28;20091;-89
2022/11/21 00:51:02;;;;;;;8.63;3.20;;;;;;;5.13;100.00;100444.34;5034554;28;20032;-90
2022/11/21 00:53:40;;;;;;;8.18;2.92;;;;;;;5.12;100.00;100452.94;5034504;28;20108;-90
2022/11/21 00:56:05;;;;;;;4.10;2.47;;;;;;;5.13;100.00;100464.91;5034178;28;20119;-90
2022/11/21 00:58:39;;;;;;;2.60;2.03;;;;;;;5.13;100.00;100467.50;5034550;28;20118;-91
2022/11/21 01:01:10;;;;;;;2.15;1.95;;;;;;;5.10;100.00;100468.34;5034619;28;20025;-91
2022/11/21 01:03:36;;;;;;;2.05;1.80;;;;;;;5.07;100.00;100458.06;5034269;28;20040;-91
2022/11/21 01:08:51;;;;;;;2.03;1.40;;;;;;;5.06;100.00;100468.34;5034361;28;20094;-92
2022/11/21 01:11:32;;;;;;;2.78;1.67;;;;;;;5.07;100.00;100470.06;5034254;28;20112;-92
2022/11/21 01:13:57;;;;;;;1.30;1.15;;;;;;;5.04;100.00;100463.22;5034422;28;20454;-92
2022/11/21 01:16:25;;;;;;;1.10;0.93;;;;;;;5.04;100.00;100470.06;5033869;28;20087;-90
2022/11/21 01:19:00;;;;;;;5.45;2.30;;;;;;;4.99;100.00;100466.63;5034225;28;20026;-91
2022/11/21 01:21:29;;;;;;;5.07;2.20;;;;;;;5.01;100.00;100475.22;5034139;28;20399;-92
2022/11/21 01:23:55;;;;;;;5.28;2.95;;;;;;;4.92;100.00;100476.91;5034457;28;20017;-91
2022/11/21 01:26:36;;;;;;;16.23;7.60;;;;;;;4.82;100.00;100480.31;5034072;28;20454;-91
2022/11/21 01:29:18;;;;;;;22.33;10.25;;;;;;;4.68;100.00;100482.84;5034334;28;20025;-91
2022/11/21 01:31:58;;;;;;;22.35;11.25;;;;;;;4.55;100.00;100484.53;5034174;28;20022;-91
2022/11/21 01:34:26;;;;;;;21.08;10.73;;;;;;;4.48;100.00;100481.06;5035691;28;20018;-92
2022/11/21 01:36:54;;;;;;;21.40;10.05;;;;;;;4.42;100.00;100483.59;5033708;28;20022;-91
2022/11/21 01:39:26;;;;;;;18.23;8.75;;;;;;;4.39;100.00;100478.44;5033252;28;20029;-92
2022/11/21 01:41:51;;;;;;;17.00;8.10;;;;;;;4.37;100.00;100475.03;5033820;28;20017;-92
2022/11/21 01:44:22;;;;;;;16.15;7.32;;;;;;;4.35;100.00;100474.16;5033080;28;20571;-92
2022/11/21 01:46:52;;;;;;;15.85;7.25;;;;;;;4.32;100.00;100472.44;5033720;28;20044;-92
2022/11/21 01:49:35;;;;;;;15.82;6.80;;;;;;;4.30;100.00;100461.28;5033767;28;20148;-92
2022/11/21 01:52:20;;;;;;;13.55;6.13;;;;;;;4.35;100.00;100457.88;5033979;28;20021;-91
2022/11/21 01:55:05;;;;;;;12.65;5.60;;;;;;;4.38;100.00;100457.88;5034113;28;20025;-92
2022/11/21 01:57:42;;;;;;;12.57;5.78;;;;;;;4.40;100.00;100462.16;5033562;28;20021;-92
2022/11/21 02:00:26;;;;;;;11.98;5.40;;;;;;;4.40;100.00;100469.88;5027868;28;20455;-92
2022/11/21 02:03:10;;;;;;;11.10;5.07;;;;;;;4.36;100.00;100475.88;5014458;28;20025;-92
2022/11/21 02:05:53;;;;;;;21.80;11.43;;;;;;;4.18;100.00;100486.91;5018539;28;20040;-91
2022/11/21 02:08:23;;;;;;;19.85;9.73;;;;;;;4.09;100.00;100477.44;5018034;28;20117;-93
2022/11/21 02:11:28;;;;;;;18.75;8.70;;;;;;;4.07;100.00;100479.13;5018270;28;20101;-93
2022/11/21 02:13:57;;;;;;;19.57;8.60;;;;;;;4.01;100.00;100484.25;5018351;28;20109;-93
2022/11/21 02:16:26;;;;;;;18.27;8.18;;;;;;;4.01;100.00;100490.22;5017862;28;20328;-92
2022/11/21 02:19:38;;;;;;;16.52;7.60;;;;;;;4.06;100.00;100497.97;5017975;28;20026;-93
2022/11/21 02:22:28;;;;;;;18.67;8.85;;;;;;;3.98;100.00;100484.22;5017995;28;20025;-93
2022/11/21 02:25:08;;;;;;;18.25;8.45;;;;;;;3.93;100.00;100476.50;5017588;28;20072;-93
2022/11/21 02:27:40;;;;;;;16.40;7.20;;;;;;;3.96;100.00;100486.78;5017612;28;20454;-93
2022/11/21 02:30:08;;;;;;;14.93;6.55;;;;;;;3.98;100.00;100500.50;5017318;28;20049;-93
2022/11/21 02:32:37;;;;;;;14.30;6.57;;;;;;;3.98;100.00;100484.22;5017620;28;20018;-93
2022/11/21 02:35:08;;;;;;;13.65;6.05;;;;;;;3.95;100.00;100484.19;5017631;28;20022;-93
2022/11/21 02:37:36;;;;;;;17.52;7.65;;;;;;;3.89;100.00;100487.59;5018144;28;20037;-93
2022/11/21 02:40:06;;;;;;;18.50;8.10;;;;;;;3.79;100.00;100490.94;5061199;23;20048;-93
2022/11/21 02:42:40;;;;;;;18.52;8.90;;;;;;;3.75;100.00;100486.66;5100428;22;20040;-93
2022/11/21 02:45:30;;;;;;;21.33;11.10;;;;;;;3.63;100.00;100493.41;5077095;28;20025;-92
2022/11/21 02:48:08;;;;;;;20.27;10.15;;;;;;;3.55;100.00;100489.91;5077668;28;20029;-93
2022/11/21 02:50:52;;;;;;;19.27;9.18;;;;;;;3.59;100.00;100499.38;5079273;28;20052;-94
2022/11/21 02:53:18;;;;;;;19.48;8.80;;;;;;;3.59;100.00;100511.34;5146782;22;20723;-93
2022/11/21 02:55:47;;;;;;;15.03;6.97;;;;;;;3.60;100.00;100513.06;5080737;28;20028;-93
2022/11/21 02:58:13;;;;;;;16.52;7.50;;;;;;;3.63;100.00;100521.66;5076663;28;20029;-94
2022/11/21 03:00:44;;;;;;;15.38;7.15;;;;;;;3.59;100.00;100517.31;5075611;28;20029;-93
2022/11/21 03:03:22;;;;;;;19.65;9.13;;;;;;;3.57;100.00;100510.47;5080918;28;20051;-93
2022/11/21 03:06:04;;;;;;;17.90;8.45;;;;;;;3.58;100.00;100507.06;5076562;28;20036;-94
2022/11/21 03:08:29;;;;;;;18.88;8.63;;;;;;;3.54;100.00;100499.34;5076871;28;20028;-94
2022/11/21 03:11:06;;;;;;;16.10;7.53;;;;;;;3.59;100.00;100483.97;5076689;28;20377;-93
2022/11/21 03:13:31;;;;;;;;;;;;;;;3.55;100.00;100489.91;5076990;28;20416;-93
2022/11/21 03:18:38;;;;;;;21.65;11.10;;;;;;;3.44;100.00;100487.28;5043692;22;20087;-94
2022/11/21 03:21:11;;;;;;;20.83;10.50;;;;;;;3.37;100.00;100480.38;5060858;22;20597;-95
2022/11/21 03:23:40;;;;;;;25.45;14.23;;;;;;;3.26;100.00;100477.72;5056755;28;20025;-94
2022/11/21 03:26:05;;;;;;;27.02;15.35;;;;;;;3.15;100.00;100475.06;5056109;28;20043;-94
2022/11/21 03:28:33;;;;;;;24.58;13.43;;;;;;;3.17;100.00;100475.06;5056508;28;20485;-94
2022/11/21 03:30:59;;;;;;;23.95;13.25;;;;;;;3.14;100.00;100475.03;5056457;28;20036;-94
2022/11/21 03:33:40;;;;;;;23.00;12.13;;;;;;;3.13;100.00;100465.63;5056187;28;20044;-94
2022/11/21 03:36:14;;;;;;;20.73;10.50;;;;;;;3.16;100.00;100466.50;5048509;28;20072;-94
2022/11/21 03:38:40;;;;;;;20.92;10.68;;;;;;;3.20;100.00;100473.38;5056155;28;20028;-94
2022/11/21 03:41:30;;;;;;;18.58;8.88;;;;;;;3.23;100.00;100468.28;5056064;28;20025;-94
2022/11/21 03:44:04;;;;;;;20.42;9.43;;;;;;;3.26;100.00;100466.59;5056812;28;20025;-95
2022/11/21 03:46:41;;;;;;;17.38;8.00;;;;;;;3.28;100.00;100464.88;5056630;28;20082;-94
2022/11/21 03:49:07;;;;;;;16.33;7.07;;;;;;;3.29;100.00;100476.88;5056013;28;20033;-94
2022/11/21 03:51:33;;;;;;;15.00;6.70;;;;;;;3.32;100.00;100474.34;5055889;28;20430;-94
2022/11/21 03:53:58;;;;;;;12.70;5.50;;;;;;;3.34;100.00;100478.63;5055870;28;20307;-94
2022/11/21 03:56:25;;;;;;;14.85;6.75;;;;;;;3.36;100.00;100478.66;5055685;28;20453;-94
2022/11/21 03:58:50;;;;;;;12.50;5.80;;;;;;;3.36;100.00;100476.09;5055848;28;20028;-94
2022/11/21 04:01:27;;;;;;;12.35;5.50;;;;;;;3.39;100.00;100479.53;5056419;28;20064;-95
2022/11/21 04:03:53;;;;;;;11.18;5.30;;;;;;;3.40;100.00;100470.13;5055594;28;20493;-94
2022/11/21 04:06:20;;;;;;;11.18;5.40;;;;;;;3.41;100.00;100471.84;5055673;28;20025;-94
2022/11/21 04:08:54;;;;;;;10.90;5.00;;;;;;;3.46;100.00;100484.72;5055723;28;20044;-94
2022/11/21 04:11:23;;;;;;;10.05;4.53;;;;;;;3.47;100.00;100483.88;5075506;28;20013;-94
2022/11/21 04:14:03;;;;;;;9.52;4.47;;;;;;;3.49;100.00;100483.03;5079756;28;20020;-91
2022/11/21 04:16:44;;;;;;;10.50;4.68;;;;;;;3.50;100.00;100476.19;5079478;28;20020;-94
2022/11/21 04:19:09;;;;;;;8.13;4.10;;;;;;;3.49;100.00;100470.19;5067435;28;20033;-94
2022/11/21 04:21:35;;;;;;;7.65;4.05;;;;;;;3.49;100.00;100467.63;5058200;28;20530;-94
2022/11/21 04:24:00;;;;;;;8.52;4.53;;;;;;;3.49;100.00;100465.06;5057921;28;20033;-93
2022/11/21 04:26:25;;;;;;;9.45;4.43;;;;;;;3.50;100.00;100469.34;5062620;28;20005;-93
2022/11/21 04:28:53;;;;;;;9.27;4.72;;;;;;;3.54;100.00;100471.09;5072280;28;20020;-94
2022/11/21 04:31:19;;;;;;;7.97;3.95;;;;;;;3.56;100.00;100468.53;5077245;28;20045;-92
2022/11/21 04:33:44;;;;;;;8.07;4.28;;;;;;;3.52;100.00;100462.53;5077253;28;20072;-93
2022/11/21 04:36:18;;;;;;;8.65;4.38;;;;;;;3.50;100.00;100458.25;5073083;28;20025;-94
2022/11/21 04:38:44;;;;;;;8.25;4.53;;;;;;;3.53;100.00;100463.41;5056896;28;20100;-94
2022/11/21 04:41:09;;;;;;;9.30;4.40;;;;;;;3.52;100.00;100447.13;5078514;23;20139;-93
2022/11/21 04:43:35;;;;;;;8.50;4.47;;;;;;;3.51;100.00;100453.13;5075941;28;20029;-94
2022/11/21 04:46:00;;;;;;;9.75;4.82;;;;;;;3.50;100.00;100446.25;5075973;28;20021;-93
2022/11/21 04:48:26;;;;;;;17.55;8.30;;;;;;;3.42;100.00;100439.38;5081305;22;20025;-93
2022/11/21 04:50:57;;;;;;;20.05;10.20;;;;;;;3.29;100.00;100435.84;5053840;28;20041;-93
2022/11/21 04:53:25;;;;;;;21.60;11.70;;;;;;;3.21;100.00;100440.91;5054533;28;20150;-93
2022/11/21 04:55:51;;;;;;;20.30;10.38;;;;;;;3.16;100.00;100440.84;5054856;28;20025;-94
2022/11/21 04:58:16;;;;;;;18.75;9.27;;;;;;;3.18;100.00;100446.88;5054805;28;20027;-94
2022/11/21 05:04:03;;;;;;;15.27;7.22;;;;;;;3.23;100.00;100437.53;5054883;28;20040;-93
2022/11/21 05:06:45;;;;;;;13.48;6.10;;;;;;;3.26;100.00;100428.97;5055236;28;20025;-94
2022/11/21 05:09:26;;;;;;;12.73;5.93;;;;;;;3.30;100.00;100429.84;5054189;28;20037;-94
2022/11/21 05:14:35;;;;;;;11.05;5.15;;;;;;;3.32;100.00;100421.31;5063215;28;20080;-94
2022/11/21 05:17:02;;;;;;;8.88;4.63;;;;;;;3.38;100.00;100425.63;5055823;28;20176;-94
2022/11/21 05:19:27;;;;;;;7.78;4.20;;;;;;;3.39;100.00;100417.97;5057261;28;20032;-93
2022/11/21 05:21:53;;;;;;;8.30;4.30;;;;;;;3.38;100.00;100412.81;5057709;28;20039;-94
2022/11/21 05:24:30;;;;;;;8.38;4.40;;;;;;;3.42;100.00;100422.25;5056092;28;20017;-94
2022/11/21 05:27:07;;;;;;;;;;;;;;;3.44;100.00;100417.13;5061797;28;20025;-94
2022/11/21 05:29:32;;;;;;;8.60;4.25;;;;;;;3.38;100.00;100406.00;5038616;28;19960;-94
2022/11/21 05:32:10;;;;;;;9.80;4.70;;;;;;;3.35;100.00;100405.13;5035093;28;20033;-92
2022/11/21 05:34:35;;;;;;;8.32;4.40;;;;;;;3.35;100.00;100410.25;5034523;28;20057;-92
2022/11/21 05:37:12;;;;;;;7.45;3.92;;;;;;;3.36;100.00;100407.69;5038306;28;20056;-93
2022/11/21 05:39:37;;;;;;;;;;;;;;;3.39;100.00;100410.28;5062422;28;20031;-90
2022/11/21 05:42:03;;;;;;;9.80;5.00;;;;;;;3.40;100.00;100406.00;5054616;28;20369;-87
2022/11/21 05:52:29;;;;;;;8.10;4.32;;;;;;;3.47;100.00;100394.06;5012637;28;20128;-92
2022/11/21 05:54:54;;;;;;;6.60;3.97;;;;;;;3.44;100.00;100392.34;5045292;22;20114;-92
2022/11/21 05:57:20;;;;;;;7.28;4.15;;;;;;;3.46;100.00;100397.47;5072668;28;20090;-87
2022/11/21 05:59:45;;;;;;;6.13;3.67;;;;;;;3.48;100.00;100394.09;5072933;28;20115;-87
2022/11/21 06:05:01;;;;;;;8.32;4.40;;;;;;;3.46;100.00;100379.53;5072242;28;20050;-87
2022/11/21 06:07:27;;;;;;;8.52;4.40;;;;;;;3.49;100.00;100371.84;5071953;28;20462;-86
2022/11/21 06:09:52;;;;;;;10.07;4.72;;;;;;;3.48;100.00;100370.13;5072804;28;20069;-85
2022/11/21 06:12:17;;;;;;;8.88;4.60;;;;;;;3.46;100.00;100369.25;5071976;28;20134;-87
2022/11/21 06:14:43;;;;;;;7.78;4.40;;;;;;;3.45;100.00;100382.94;5072222;28;20074;-86
2022/11/21 06:17:08;;;;;;;9.23;4.50;;;;;;;3.46;100.00;100392.34;5072340;28;20017;-86
2022/11/21 06:19:33;;;;;;;9.40;4.50;;;;;;;3.47;100.00;100394.06;5072515;28;20016;-86
2022/11/21 06:21:58;;;;;;;11.75;5.50;;;;;;;3.44;100.00;100374.41;5072884;28;20035;-86
2022/11/21 06:24:24;;;;;;;14.57;6.53;;;;;;;3.43;100.00;100382.09;5072170;28;20031;-88
2022/11/21 06:26:52;;;;;;;13.30;6.13;;;;;;;3.44;100.00;100370.94;5073278;28;20032;-86
2022/11/21 06:29:20;;;;;;;12.95;5.70;;;;;;;3.47;100.00;100370.97;5072900;28;20025;-85
2022/11/21 06:31:46;;;;;;;10.52;5.10;;;;;;;3.48;100.00;100365.00;5063306;28;20469;-88
2022/11/21 06:34:11;;;;;;;10.48;4.90;;;;;;;3.51;100.00;100368.44;5072548;28;20020;-88
2022/11/21 06:36:36;;;;;;;9.15;4.60;;;;;;;3.51;100.00;100357.34;5073416;28;20024;-90
2022/11/21 06:39:02;;;;;;;12.55;5.70;;;;;;;3.54;100.00;100362.50;5072100;28;20473;-89
2022/11/21 06:41:49;;;;;;;9.73;4.95;;;;;;;3.58;100.00;100355.66;5073401;28;20107;-90
2022/11/21 06:44:14;;;;;;;9.07;4.53;;;;;;;3.60;100.00;100352.25;5071486;28;20029;-87
2022/11/21 06:46:39;;;;;;;8.32;4.05;;;;;;;3.62;100.00;100354.81;5072316;28;20021;-87
2022/11/21 06:49:13;;;;;;;9.68;4.35;;;;;;;3.66;100.00;100356.56;5073449;28;20522;-94
2022/11/21 06:51:44;;;;;;;8.88;4.22;;;;;;;3.68;100.00;100352.28;5086330;22;20132;-93
2022/11/21 06:54:09;;;;;;;6.07;3.45;;;;;;;3.67;100.00;100350.56;5056331;28;20108;-94
2022/11/21 06:56:35;;;;;;;5.75;3.42;;;;;;;3.70;100.00;100359.13;5058255;28;20052;-95
2022/11/21 06:59:12;;;;;;;5.45;3.45;;;;;;;3.69;100.00;100334.31;5061378;28;20060;-95
2022/11/21 07:01:38;;;;;;;6.13;3.30;;;;;;;3.68;100.00;100342.03;5040122;28;20033;-95
2022/11/21 07:04:03;;;;;;;5.70;3.25;;;;;;;3.69;100.00;100338.63;5040478;28;20060;-96
2022/11/21 07:06:28;;;;;;;5.88;3.33;;;;;;;3.73;100.00;100344.63;5038704;28;20093;-94
2022/11/21 07:08:54;;;;;;;7.10;3.45;;;;;;;3.75;100.00;100351.47;5036530;28;20078;-94
2022/11/21 07:11:19;;;;;;;6.15;3.30;;;;;;;3.80;100.00;100352.34;5036935;28;20059;-92
2022/11/21 07:13:45;;;;;;;7.82;3.97;;;;;;;3.84;100.00;100353.22;5036033;28;20021;-94
2022/11/21 07:16:24;;;;;;;9.23;4.40;;;;;;;3.84;100.00;100345.53;5036823;28;20029;-95
2022/11/21 07:18:50;;;;;;;10.00;4.70;;;;;;;3.87;100.00;100342.97;5037233;28;20060;-96
2022/11/21 07:21:15;;;;;;;13.18;6.15;;;;;;;3.83;100.00;100329.25;5041825;28;20391;-95
2022/11/21 07:23:41;;;;;;;13.43;6.30;;;;;;;3.85;100.00;100330.13;5063457;28;20055;-96
2022/11/21 07:26:08;;;;;;;10.57;5.30;;;;;;;3.88;100.00;100330.97;5061382;28;20047;-96
2022/11/21 07:28:34;;;;;;;11.43;5.38;;;;;;;3.90;100.00;100332.69;5061030;28;20110;-95
2022/11/21 07:31:00;;;;;;;9.55;4.90;;;;;;;3.92;100.00;100332.72;5062815;28;20020;-96
2022/11/21 07:33:26;;;;;;;7.88;4.32;;;;;;;3.94;100.00;100331.03;5083987;23;20045;-96
2022/11/21 07:35:55;;;;;;;7.15;3.95;;;;;;;3.98;100.00;100336.19;5080632;28;20051;-96
2022/11/21 07:38:26;;;;;;;7.82;4.10;;;;;;;3.98;100.00;100336.19;5077140;28;20036;-96
2022/11/21 07:40:52;;;;;;;8.23;4.20;;;;;;;3.98;100.00;100335.31;5076077;28;20042;-87
2022/11/21 07:43:17;;;;;;;7.22;3.72;;;;;;;3.97;100.00;100325.88;5074744;28;20111;-88
2022/11/21 07:45:43;;;;;;;6.20;3.70;;;;;;;4.00;100.00;100333.59;5075432;28;20111;-90
2022/11/21 07:48:20;;;;;;;5.68;3.40;;;;;;;4.02;100.00;100335.31;5075117;28;20366;-94
2022/11/21 07:50:46;;;;;;;5.97;3.55;;;;;;;4.08;100.00;100338.75;5074848;28;20030;-89
2022/11/21 07:53:12;;;;;;;5.57;3.20;;;;;;;4.10;100.00;100335.34;5084092;28;20111;-95
2022/11/21 07:55:49;;;;;;;5.28;3.30;;;;;;;4.15;100.00;100333.66;5086443;28;20380;-96
2022/11/21 07:58:16;;;;;;;8.95;3.97;;;;;;;4.17;100.00;100331.09;5082936;28;20031;-95
2022/11/21 08:00:42;;;;;;;6.43;4.03;;;;;;;4.19;100.00;100321.69;5083861;28;20039;-95
2022/11/21 08:03:07;;;;;;;7.32;4.28;;;;;;;4.21;100.00;100324.25;5081289;28;20017;-95
2022/11/21 08:05:37;;;;;;;5.63;3.67;;;;;;;4.25;100.00;100325.97;5082504;28;20020;-95
2022/11/21 08:08:02;;;;;;;5.80;3.58;;;;;;;4.24;100.00;100319.13;5081539;28;20024;-95
2022/11/21 08:10:28;;;;;;;5.13;3.30;;;;;;;4.25;100.00;100320.84;5079007;28;20078;-95
2022/11/21 08:12:53;;;;;;;4.30;2.80;;;;;;;4.27;100.00;100312.28;5077954;28;20023;-95
2022/11/21 08:15:31;;;;;;;4.05;2.85;;;;;;;4.28;100.00;100314.00;5078694;28;20078;-95
2022/11/21 08:17:56;;;;;;;3.58;2.70;;;;;;;4.28;100.00;100308.84;5077407;28;20066;-94
2022/11/21 08:20:38;;;;;;;4.03;2.75;;;;;;;4.30;100.00;100302.00;5077945;28;20028;-95
2022/11/21 08:23:04;;;;;;;4.30;2.70;;;;;;;4.36;100.00;100308.88;5084919;28;20042;-94
2022/11/21 08:25:30;;;;;;;3.83;2.70;;;;;;;4.42;100.00;100310.59;5086352;28;20027;-94
2022/11/21 08:28:07;;;;;;;3.10;2.40;;;;;;;4.45;100.00;100296.03;5075339;28;20099;-95
2022/11/21 08:30:33;;;;;;;3.28;2.50;;;;;;;4.51;100.00;100294.31;5075312;28;20172;-94
2022/11/21 08:33:00;;;;;;;3.53;2.67;;;;;;;4.53;100.00;100295.16;5075880;28;20072;-96
2022/11/21 08:35:26;;;;;;;6.00;3.40;;;;;;;4.58;100.00;100285.75;5082486;28;20032;-96
2022/11/21 08:37:56;;;;;;;5.55;3.22;;;;;;;4.62;100.00;100274.59;5085821;28;20016;-96
2022/11/21 08:40:22;;;;;;;4.90;3.30;;;;;;;4.67;100.00;100272.06;5083910;28;20519;-96
2022/11/21 08:42:54;;;;;;;5.20;3.20;;;;;;;4.70;100.00;100265.19;5084834;28;20025;-95
2022/11/21 08:45:34;;;;;;;4.22;2.90;;;;;;;4.76;100.00;100265.19;5085284;28;20032;-96
2022/11/21 08:47:59;;;;;;;5.20;3.30;;;;;;;4.80;100.00;100258.31;5083401;28;20043;-96
2022/11/21 08:50:26;;;;;;;3.72;2.60;;;;;;;4.86;100.00;100258.34;5084809;28;20477;-96
2022/11/21 08:52:52;;;;;;;4.60;2.60;;;;;;;4.92;100.00;100265.19;5083911;28;20024;-96
2022/11/21 08:55:17;;;;;;;4.03;2.50;;;;;;;4.99;100.00;100263.47;5083805;28;20028;-95
2022/11/21 08:57:43;;;;;;;5.10;3.05;;;;;;;5.06;100.00;100268.59;5085364;28;20385;-96
2022/11/21 09:00:13;;;;;;;4.03;2.70;;;;;;;5.12;100.00;100266.84;5085345;28;20058;-96
2022/11/21 09:02:38;;;;;;;4.22;2.80;;;;;;;5.19;100.00;100260.81;5087362;28;20029;-96
2022/11/21 09:05:04;;;;;;;4.25;2.80;;;;;;;5.23;100.00;100249.69;5081584;28;20028;-96
2022/11/21 09:07:30;;;;;;;7.28;3.00;;;;;;;5.30;100.00;100259.06;5080917;28;20028;-96
2022/11/21 09:09:55;;;;;;;5.72;2.85;;;;;;;5.30;100.00;100251.34;5082105;28;20021;-96
2022/11/21 09:12:34;;;;;;;7.18;3.60;;;;;;;5.38;100.00;100241.91;5074896;28;20107;-96
2022/11/21 09:20:27;;;;;;;4.55;2.50;;;;;;;5.57;100.00;100246.97;5075055;28;20149;-95
2022/11/21 09:22:52;;;;;;;3.55;2.55;;;;;;;5.65;100.00;100247.78;5076633;28;20032;-96
2022/11/21 09:25:17;;;;;;;3.88;2.40;;;;;;;5.74;100.00;100236.59;5076830;28;20040;-96
2022/11/21 09:27:43;;;;;;;3.72;2.28;;;;;;;5.84;100.00;100242.56;5075555;28;20027;-96
2022/11/21 09:30:08;;;;;;;2.40;2.10;;;;;;;5.90;100.00;100237.38;5074645;28;20036;-95
2022/11/21 09:32:34;;;;;;;4.27;2.53;;;;;;;5.98;100.00;100237.34;5075105;28;20036;-96
2022/11/21 09:35:00;;;;;;;8.40;3.25;;;;;;;6.03;100.00;100230.44;5072793;22;20073;-94
2022/11/21 09:37:25;;;;;;;5.20;2.97;;;;;;;6.05;100.00;100233.03;5034492;28;20057;-94
2022/11/21 09:39:50;;;;;;;4.90;2.75;;;;;;;6.11;100.00;100230.41;5045950;28;20126;-95
2022/11/21 09:42:21;;;;;;;4.80;2.95;;;;;;;6.14;100.00;100230.41;5053414;28;20017;-95
2022/11/21 09:45:12;;;;;;;4.95;2.90;;;;;;;6.19;100.00;100220.94;5054064;28;20116;-94
2022/11/21 09:47:43;;;;;;;5.47;2.72;;;;;;;6.25;100.00;100218.28;5054240;28;20017;-94
2022/11/21 09:50:11;;;;;;;4.25;2.92;;;;;;;6.30;100.00;100211.38;5053919;28;20045;-95
2022/11/21 09:52:43;;;;;;;5.07;2.60;;;;;;;6.40;100.00;100207.00;5054577;28;20072;-95
2022/11/21 09:55:22;;;;;;;5.47;2.53;;;;;;;6.51;100.00;100209.50;5053221;28;20052;-96
2022/11/21 09:57:49;;;;;;;4.32;2.50;;;;;;;6.59;100.00;100201.66;5053417;28;20173;-95
2022/11/21 10:00:32;;;;;;;5.63;2.70;;;;;;;6.64;100.00;100200.75;5053829;28;20521;-95
2022/11/21 10:02:59;;;;;;;4.82;2.90;;;;;;;6.68;100.00;100201.59;5057007;28;20029;-96
2022/11/21 10:05:53;;;;;;;4.20;2.45;;;;;;;6.76;100.00;100194.66;5058447;28;20028;-91
2022/11/21 10:08:29;;;;;;;7.00;2.90;;;;;;;6.86;100.00;100194.53;5029048;28;20029;-92
2022/11/21 10:11:20;;;;;;;3.85;2.45;;;;;;;6.90;100.00;100186.75;5054168;28;20374;-91
2022/11/21 10:14:14;;;;;;;4.45;2.53;;;;;;;6.92;100.00;100182.44;5053887;28;20112;-94
2022/11/21 10:17:20;;;;;;;4.07;2.50;;;;;;;6.93;100.00;100184.16;5051274;28;20028;-94
2022/11/21 10:20:04;;;;;;;3.80;2.17;;;;;;;7.00;100.00;100177.19;5029747;28;20037;-95
2022/11/21 10:22:57;;;;;;;5.50;2.50;;;;;;;7.08;100.00;100171.97;5033636;28;20533;-96
2022/11/21 10:25:38;;;;;;;5.97;2.80;;;;;;;7.02;100.00;100165.16;5036354;28;20060;-95
2022/11/21 10:28:30;;;;;;;4.15;2.60;;;;;;;7.03;100.00;100161.69;5037827;28;20064;-95
2022/11/21 10:30:57;;;;;;;3.97;2.50;;;;;;;7.05;100.00;100156.50;5042990;28;20064;-93
2022/11/21 10:33:33;;;;;;;3.53;2.40;;;;;;;7.08;100.00;100151.31;5037384;28;20043;-95
2022/11/21 10:36:11;;;;;;;2.97;2.00;;;;;;;7.08;100.00;100153.91;5037202;28;20127;-95
2022/11/21 10:38:39;;;;;;;2.88;2.33;;;;;;;7.06;100.00;100150.47;5037421;28;20029;-96
2022/11/21 10:41:22;;;;;;;4.88;2.60;;;;;;;6.97;100.00;100154.00;5037143;28;20022;-95
2022/11/21 10:46:55;;;;;;;3.83;2.10;;;;;;;6.89;100.00;100146.34;5017614;28;20036;-94
2022/11/21 10:49:20;;;;;;;4.68;2.30;;;;;;;6.87;100.00;100140.34;5017377;28;20363;-95
2022/11/21 10:51:56;;;;;;;3.40;2.13;;;;;;;6.90;100.00;100142.06;5016079;28;20025;-85
2022/11/21 10:54:34;;;;;;;2.60;1.90;;;;;;;6.92;100.00;100137.75;5016979;28;20359;-96
2022/11/21 10:57:04;;;;;;;2.97;2.00;;;;;;;6.93;100.00;100139.41;5019294;28;20804;-94
2022/11/21 10:59:30;;;;;;;3.40;2.03;;;;;;;6.97;100.00;100132.53;5017372;28;20109;-95
2022/11/21 11:02:21;;;;;;;2.43;2.00;;;;;;;7.00;100.00;100133.34;5016971;28;20060;-93
2022/11/21 11:04:47;;;;;;;5.30;2.30;;;;;;;7.08;100.00;100120.34;5017519;28;20105;-95
2022/11/21 11:07:24;;;;;;;2.97;2.10;;;;;;;7.22;100.00;100112.44;5016769;28;20434;-95
2022/11/21 11:09:51;;;;;;;4.60;2.65;;;;;;;7.32;100.00;100108.00;5022973;28;20026;-95
2022/11/21 11:13:32;;;;;;;3.67;2.42;;;;;;;7.48;100.00;100106.06;5026252;28;20031;-95
2022/11/21 11:15:24;;;;;;;5.03;2.40;;;;;;;7.62;100.00;100105.84;5016614;28;20513;-96
2022/11/21 11:17:56;;;;;;;3.95;2.40;;;;;;;7.76;100.00;100090.13;5017699;28;20032;-94
2022/11/21 11:20:29;;;;;;;4.28;2.53;;;;;;;7.88;99.05;100087.34;5017715;28;20042;-95
2022/11/21 11:22:55;;;;;;;4.07;2.30;;;;;;;7.98;99.98;100086.31;5018081;28;20037;-96
2022/11/21 11:25:21;;;;;;;6.47;2.60;;;;;;;8.08;99.38;100086.16;5017425;28;20037;-96
2022/11/21 11:27:46;;;;;;;4.68;2.20;;;;;;;8.16;99.82;100076.56;5017934;28;20022;-95
2022/11/21 11:30:16;;;;;;;3.40;2.20;;;;;;;8.23;99.99;100079.88;5018845;28;20022;-95
2022/11/21 11:32:47;;;;;;;5.07;2.42;;;;;;;8.26;97.48;100075.53;5024006;28;20061;-95
2022/11/21 11:35:16;;;;;;;5.50;2.60;;;;;;;8.31;97.52;100068.50;5023375;28;20056;-95
2022/11/21 11:38:02;;;;;;;5.80;2.70;;;;;;;8.28;93.69;100070.31;5023059;28;20057;-95
2022/11/21 11:40:57;;;;;;;6.22;3.15;;;;;;;8.31;93.45;100054.75;5019610;28;20124;-95
2022/11/21 11:47:41;;;;;;;6.72;2.60;;;;;;;8.32;94.36;100035.78;4957951;29;20074;-95
2022/11/21 11:50:12;;;;;;;4.47;2.33;;;;;;;8.33;95.02;100029.72;4962293;29;20054;-95
2022/11/21 11:53:04;;;;;;;4.85;2.50;;;;;;;8.32;93.67;100021.09;5019766;28;20029;-96
2022/11/21 11:55:46;;;;;;;4.72;2.30;;;;;;;8.34;93.58;100021.06;5019447;28;20026;-94
2022/11/21 11:58:50;;;;;;;5.00;2.38;;;;;;;8.28;93.45;100008.25;5016643;28;20028;-95
2022/11/21 12:01:49;;;;;;;5.55;2.33;;;;;;;8.19;92.76;99999.81;5002506;28;20073;-94
2022/11/21 12:04:42;;;;;;;5.68;2.33;;;;;;;8.11;90.48;99988.75;5016041;28;20029;-94
2022/11/21 12:07:30;;;;;;;4.18;2.10;;;;;;;8.08;91.28;99994.00;5015941;28;20391;-95
2022/11/21 12:10:10;;;;;;;2.75;1.95;;;;;;;8.08;92.71;99988.81;5015963;28;20018;-93
2022/11/21 12:13:02;;;;;;;4.53;1.80;;;;;;;8.07;93.15;99971.63;5015814;28;20104;-96
2022/11/21 12:15:51;;;;;;;3.38;1.90;;;;;;;7.99;91.34;99968.34;5016211;28;20451;-95
2022/11/21 12:18:57;;;;;;;3.28;1.90;;;;;;;8.01;93.33;99971.72;5015904;28;20040;-95
2022/11/21 12:21:28;;;;;;;3.17;1.92;;;;;;;8.00;93.01;99962.25;4992734;28;20101;-94